KMDD/MDD METAR and TAF weather

Enter ICAO airport designator
Station Type Date Time Source
KMDD METAR 2024/05/28 22:35 UTC NOAA

KMDD 282235Z AUTO 11015G26KT 10SM 29/17 A2991 RMK AO2 LTG DSNT SE T02920173


Station Type Date Time Source
KMDD Decoded METAR 2024/05/28 22:35 UTC NOAA

Midland, Midland Airpark, TX, United States (KMDD) 32-02-11N 102-06-03W
May 28, 2024 - 06:35 PM EDT / 2024.05.28 2235 UTC
Wind: from the ESE (110 degrees) at 17 MPH (15 KT) gusting to 30 MPH (26 KT):0
Visibility: 10 mile(s):0
Weather: Lightning observed
Temperature: 84.6 F (29.2 C)
Dew Point: 63.1 F (17.3 C)
Relative Humidity: 48%
Pressure (altimeter): 29.91 in. Hg (1012 hPa)
ob: KMDD 282235Z AUTO 11015G26KT 10SM 29/17 A2991 RMK AO2 LTG DSNT SE T02920173
cycle: 22

Station Type Date Time Source
KMDD TAF UTC NOAA

Error!

Example: see airport list